createdAt,value
2022-11-15T00:02:33.207Z,65.33
2022-11-15T00:08:06.163Z,65.28
2022-11-15T00:13:28.155Z,65.40
2022-11-15T00:18:51.111Z,65.43
2022-11-15T00:24:13.004Z,65.70
2022-11-15T00:29:35.300Z,65.68
2022-11-15T00:34:57.452Z,65.67
2022-11-15T00:40:19.294Z,65.64
2022-11-15T00:45:54.656Z,65.62
2022-11-15T00:51:16.336Z,65.75
2022-11-15T00:56:38.386Z,65.67
2022-11-15T01:01:59.977Z,65.51
2022-11-15T01:07:22.524Z,65.46
2022-11-15T01:12:44.513Z,65.50
2022-11-15T01:18:06.275Z,65.32
2022-11-15T01:23:34.363Z,65.10
2022-11-15T01:28:56.535Z,65.09
2022-11-15T01:34:18.305Z,65.46
2022-11-15T01:39:40.099Z,65.34
2022-11-15T01:45:02.383Z,65.58
2022-11-15T01:50:32.103Z,65.38
2022-11-15T01:55:55.172Z,65.51
2022-11-15T02:01:17.137Z,65.26
2022-11-15T02:06:40.925Z,65.50
2022-11-15T02:12:02.509Z,65.27
2022-11-15T02:17:46.474Z,65.27
2022-11-15T02:23:30.525Z,65.27
2022-11-15T02:29:08.250Z,65.58
2022-11-15T02:34:55.590Z,65.61
2022-11-15T02:40:51.377Z,65.49
2022-11-15T02:46:42.671Z,65.63
2022-11-15T02:52:05.089Z,65.21
2022-11-15T02:57:52.784Z,65.48
2022-11-15T03:03:34.923Z,65.62
2022-11-15T03:09:15.930Z,65.75
2022-11-15T03:14:58.050Z,65.73
2022-11-15T03:20:20.733Z,66.02
2022-11-15T03:25:45.276Z,65.15
2022-11-15T03:31:09.757Z,65.45
2022-11-15T03:36:34.724Z,65.49
2022-11-15T03:42:13.518Z,65.41
2022-11-15T03:47:44.512Z,65.69
2022-11-15T03:53:06.469Z,65.76
2022-11-15T03:58:28.614Z,65.87
2022-11-15T04:03:50.879Z,65.91
2022-11-15T04:09:12.895Z,65.57
2022-11-15T04:14:53.026Z,65.82
2022-11-15T04:20:22.271Z,65.96
2022-11-15T04:25:45.056Z,66.07
2022-11-15T04:31:25.292Z,66.25
2022-11-15T04:37:05.552Z,66.16
2022-11-15T04:42:45.611Z,66.06
2022-11-15T04:48:19.502Z,66.03
2022-11-15T04:53:41.362Z,66.07
2022-11-15T04:59:03.470Z,65.97
2022-11-15T05:04:25.015Z,65.97
2022-11-15T05:09:47.422Z,66.06
2022-11-15T05:15:09.980Z,65.91
2022-11-15T05:20:32.006Z,65.88
2022-11-15T05:25:53.379Z,65.66
2022-11-15T05:31:17.021Z,65.65
2022-11-15T05:36:47.853Z,65.51
2022-11-15T05:42:13.036Z,65.44
2022-11-15T05:47:37.108Z,65.60
2022-11-15T05:53:04.683Z,65.10
2022-11-15T05:58:27.296Z,64.96
2022-11-15T06:03:49.068Z,64.03
2022-11-15T06:09:10.693Z,64.05
2022-11-15T06:14:32.803Z,64.28
2022-11-15T06:19:54.736Z,64.60
2022-11-15T06:25:16.762Z,64.66
2022-11-15T06:30:38.089Z,64.68
2022-11-15T06:36:14.511Z,64.32
2022-11-15T06:41:39.202Z,64.06
2022-11-15T06:47:01.566Z,64.18
2022-11-15T06:52:23.450Z,64.05
2022-11-15T06:57:52.844Z,64.27
2022-11-15T07:03:14.601Z,63.88
2022-11-15T07:08:36.828Z,63.34
2022-11-15T07:13:58.651Z,63.36
2022-11-15T07:19:20.421Z,63.11
2022-11-15T07:24:43.856Z,62.74
2022-11-15T07:30:07.101Z,61.97
2022-11-15T07:35:30.870Z,61.79
2022-11-15T07:40:58.880Z,61.40
2022-11-15T07:46:20.630Z,61.43
2022-11-15T07:51:42.435Z,61.07
2022-11-15T07:57:07.554Z,60.62
2022-11-15T08:02:32.607Z,60.42
2022-11-15T08:07:57.072Z,60.35
2022-11-15T08:13:19.678Z,60.54
2022-11-15T08:18:42.184Z,60.19
2022-11-15T08:24:07.224Z,60.13
2022-11-15T08:29:30.519Z,59.90
2022-11-15T08:34:55.344Z,59.51
2022-11-15T08:40:17.654Z,59.41
2022-11-15T08:45:39.605Z,59.48
2022-11-15T08:51:01.656Z,59.49
2022-11-15T08:56:23.651Z,59.54
2022-11-15T09:01:45.191Z,59.19
2022-11-15T09:07:06.958Z,58.79
2022-11-15T09:12:28.758Z,58.53
2022-11-15T09:17:51.344Z,58.51
2022-11-15T09:23:13.769Z,58.65
2022-11-15T09:28:39.723Z,58.60
2022-11-15T09:34:04.036Z,58.95
2022-11-15T09:39:25.786Z,58.80
2022-11-15T09:44:47.611Z,58.72
2022-11-15T09:50:20.639Z,58.61
2022-11-15T09:55:40.017Z,58.66
2022-11-15T10:00:48.573Z,58.68
2022-11-15T10:05:55.321Z,58.69
2022-11-15T10:11:35.521Z,58.73
2022-11-15T10:16:36.781Z,58.62
2022-11-15T10:22:12.031Z,58.32
2022-11-15T10:27:18.214Z,58.13
2022-11-15T10:32:22.636Z,57.89
2022-11-15T10:37:30.684Z,57.51
2022-11-15T10:42:34.500Z,57.60
2022-11-15T10:47:39.777Z,57.21
2022-11-15T10:52:47.939Z,56.97
2022-11-15T10:57:57.469Z,56.73
2022-11-15T11:03:04.226Z,56.31
2022-11-15T11:08:24.166Z,56.26
2022-11-15T11:13:32.034Z,56.05
2022-11-15T11:18:45.411Z,55.92
2022-11-15T11:24:12.340Z,55.97
2022-11-15T11:29:32.702Z,55.90
2022-11-15T11:35:00.498Z,55.73
2022-11-15T11:40:18.248Z,55.76
2022-11-15T11:46:02.970Z,55.92
2022-11-15T11:51:29.357Z,55.90
2022-11-15T11:56:39.686Z,56.06
2022-11-15T12:01:45.021Z,55.96
2022-11-15T12:07:00.367Z,55.94
2022-11-15T12:12:16.389Z,55.74
2022-11-15T12:17:27.382Z,55.50
2022-11-15T12:22:38.006Z,55.48
2022-11-15T12:27:53.644Z,56.09
2022-11-15T12:33:02.551Z,58.66
2022-11-15T12:38:06.401Z,59.04
2022-11-15T12:43:38.170Z,58.17
2022-11-15T12:48:41.498Z,57.81
2022-11-15T12:53:44.916Z,57.50
2022-11-15T12:59:00.320Z,57.39
2022-11-15T13:04:21.821Z,57.60
2022-11-15T13:09:31.119Z,57.34
2022-11-15T13:14:39.188Z,57.14
2022-11-15T13:19:42.848Z,57.22
2022-11-15T13:24:46.355Z,57.30
2022-11-15T13:29:49.749Z,57.30
2022-11-15T13:34:53.435Z,57.55
2022-11-15T13:40:17.161Z,57.43
2022-11-15T13:45:21.231Z,57.58
2022-11-15T13:50:31.129Z,57.69
2022-11-15T13:55:35.032Z,57.92
2022-11-15T14:00:44.132Z,58.28
2022-11-15T14:06:13.451Z,58.08
2022-11-15T14:11:19.629Z,58.60
2022-11-15T14:16:41.379Z,58.80
2022-11-15T14:22:21.998Z,58.95
2022-11-15T14:27:29.750Z,59.34
2022-11-15T14:32:50.565Z,59.46
2022-11-15T14:37:53.639Z,59.67
2022-11-15T14:42:56.681Z,59.97
2022-11-15T14:47:59.845Z,60.42
2022-11-15T14:53:03.763Z,60.57
2022-11-15T14:58:08.231Z,60.66
2022-11-15T15:03:11.978Z,61.00
2022-11-15T15:08:15.299Z,60.94
2022-11-15T15:13:21.284Z,61.45
2022-11-15T15:18:24.605Z,61.35
2022-11-15T15:23:28.500Z,61.55
2022-11-15T15:28:34.893Z,61.52
2022-11-15T15:33:39.210Z,61.78
2022-11-15T15:38:42.622Z,61.96
2022-11-15T15:43:46.404Z,62.06
2022-11-15T15:48:49.809Z,62.08
2022-11-15T15:53:53.178Z,62.29
2022-11-15T15:58:56.449Z,62.18
2022-11-15T16:03:59.842Z,62.50
2022-11-15T16:09:20.215Z,62.57
2022-11-15T16:14:24.518Z,62.50
2022-11-15T16:19:27.908Z,62.37
2022-11-15T16:24:31.202Z,62.46
2022-11-15T16:29:34.875Z,62.54
2022-11-15T16:34:41.889Z,62.19
2022-11-15T16:39:47.347Z,62.46
2022-11-15T16:44:50.952Z,62.64
2022-11-15T16:49:54.429Z,62.61
2022-11-15T16:54:58.087Z,62.74
2022-11-15T17:00:02.105Z,62.77
2022-11-15T17:05:11.862Z,62.70
2022-11-15T17:10:17.102Z,62.71
2022-11-15T17:15:20.446Z,62.66
2022-11-15T17:20:25.499Z,62.94
2022-11-15T17:25:28.794Z,63.06
2022-11-15T17:30:32.112Z,62.99
2022-11-15T17:35:35.757Z,62.94
2022-11-15T17:40:39.154Z,63.06
2022-11-15T17:45:42.839Z,62.93
2022-11-15T17:50:59.779Z,62.97
2022-11-15T17:56:04.871Z,63.15
2022-11-15T18:01:19.413Z,63.07
2022-11-15T18:06:24.800Z,63.28
2022-11-15T18:11:30.677Z,63.14
2022-11-15T18:16:41.023Z,63.14
2022-11-15T18:21:45.916Z,63.18
2022-11-15T18:26:49.287Z,63.08
2022-11-15T18:31:53.671Z,62.94
2022-11-15T18:36:56.904Z,62.82
2022-11-15T18:42:00.583Z,62.70
2022-11-15T18:47:04.180Z,62.79
2022-11-15T18:52:07.906Z,62.60
2022-11-15T18:57:11.317Z,62.44
2022-11-15T19:02:14.861Z,62.19
2022-11-15T19:07:18.660Z,62.13
2022-11-15T19:12:23.822Z,62.19
2022-11-15T19:17:30.554Z,62.08
2022-11-15T19:22:36.474Z,62.02
2022-11-15T19:27:39.718Z,61.92
2022-11-15T19:32:42.982Z,62.05
2022-11-15T19:37:46.256Z,62.26
2022-11-15T19:42:49.699Z,62.27
2022-11-15T19:47:53.137Z,62.11
2022-11-15T19:52:56.847Z,62.19
2022-11-15T19:58:00.394Z,62.53
2022-11-15T20:03:05.064Z,62.68
2022-11-15T20:08:08.317Z,62.65
2022-11-15T20:13:12.395Z,62.61
2022-11-15T20:18:17.022Z,62.82
2022-11-15T20:23:20.330Z,62.80
2022-11-15T20:28:24.444Z,62.70
2022-11-15T20:33:28.660Z,62.63
2022-11-15T20:38:33.110Z,62.82
2022-11-15T20:43:36.406Z,62.92
2022-11-15T20:48:39.489Z,62.62
2022-11-15T20:53:44.420Z,62.73
2022-11-15T20:58:48.404Z,62.91
2022-11-15T21:03:53.463Z,62.67
2022-11-15T21:09:05.994Z,62.60
2022-11-15T21:14:09.874Z,62.56
2022-11-15T21:19:15.634Z,62.75
2022-11-15T21:24:25.864Z,62.68
2022-11-15T21:29:31.247Z,62.80
2022-11-15T21:34:35.864Z,62.81
2022-11-15T21:39:39.679Z,62.84
2022-11-15T21:44:42.931Z,62.98
2022-11-15T21:49:46.516Z,63.03
2022-11-15T21:54:49.710Z,63.07
2022-11-15T21:59:53.089Z,63.00
2022-11-15T22:04:56.476Z,63.20
2022-11-15T22:09:59.965Z,63.14
2022-11-15T22:15:03.918Z,63.21
2022-11-15T22:20:37.290Z,63.20
2022-11-15T22:25:31.271Z,63.12
2022-11-15T22:30:34.744Z,63.13
2022-11-15T22:35:39.344Z,63.21
2022-11-15T22:40:43.990Z,63.14
2022-11-15T22:45:52.557Z,63.07
2022-11-15T22:50:56.383Z,63.12
2022-11-15T22:56:05.291Z,62.87
2022-11-15T23:01:20.624Z,62.79
2022-11-15T23:06:24.606Z,62.96
2022-11-15T23:11:27.853Z,62.97
2022-11-15T23:16:30.778Z,63.13
2022-11-15T23:21:42.987Z,63.11
2022-11-15T23:26:48.468Z,62.96
2022-11-15T23:32:01.231Z,62.96
2022-11-15T23:37:06.309Z,62.75
2022-11-15T23:42:09.781Z,62.64
2022-11-15T23:47:13.068Z,62.52
2022-11-15T23:52:17.889Z,62.72
2022-11-15T23:57:21.322Z,62.87
